Etusivu
METAR-TAF:

METAR-TAF

Lentoasemat :

Béchar, Algeria

Leveyspiiri: 31-37N, Pituuspiiri: 002-14W, korkeus merenpinnasta: 773 m

Tämänhetkinen sää

Tämä raportti tehtiin 52 minuuttia sitten, kello 09.00 UTC
Tuuli 15 kn idästä/kaakosta
Lämpötila 25°C
Kosteus 15%
Ilmanpaine 1017 hPa
Näkyvyys: 4000 m
laajalle levinnyttä pölyä,

METAR: DAOR 210900Z 11015KT 4000 DU NSC 25/M03 Q1017

Aika: 10:52 (09:52 UTC)

Sääennuste

Tämä raportti tehtiin 1 tunti ja 52 minuuttia sitten, kello 08.00 UTC
Ennuste voimassa 21. päivästä klo 09 UTC - 21. päivään klo 18 UTC
Tuuli 8 kn idästä
Näkyvyys: 6000 m
Todennäköisyys 30%
21. päivästä klo 09 UTC - 21. päivään klo 12 UTC
Näkyvyys: 3000 m
laajalle levinnyttä pölyä,

TAF: DAOR 210800Z 2109/2118 10008KT 6000 NSC PROB30 2109/2112 3000 DU

Säähavainnot ja -ennusteet yli 4000 lentoasemalta (METAR- ja TAF-raportit).

Käytössä olevat sääasemat on merkitty karttaan keltaisilla ja punaisilla pisteillä.

Aseta hiiri pisteen päälle nähdäksesi sääaseman nimen.

Klikkaa sitten nähdäksesi säähavainnot ja -ennusteet.

Kartan vaihtaminen: klikkaa mustalla rastilla varustettuja vihreitä pisteitä, niin voit zoomata sisään; viivalla varustettua vihreää pistettä, niin voit zoomata ulos tai vihreitä nuolia, niin pääset viereisille kartoille.


METAR-TAF: